Portada
METAR-TAF:

METAR-TAF

Aeropuertos :

Estambul Atatürk, Turquía

Aeropuerto Internacional Atatürk

latitud: 40-58N, longitud: 028-49E, altitud: 48 m

Observación

El informe se hizo hace 50 minutos, a las 12:20 UTC
Viento 5 kt del sur-suroeste, variando entre sur-sureste y suroeste
Temperatura 21°C
Humedad 64%
Presión 1025 hPa
Visibilidad 10 km o más
sin nubes por debajo de 1500 m y sin presencia de cumulonimbus.

METAR: LTBA 171220Z 20005KT 160V230 CAVOK 21/14 Q1025 NOSIG

Hora: 16:10 (13:10 UTC)

Pronóstico

El informe se hizo hace 2 horas y 30 minutos, a las 10:40 UTC
Pronóstico válido del 17 a las 12 UTC al 18 a las 18 UTC
Viento 8 kt del norte-noreste
Visibilidad 10 km o más
sin nubes por debajo de 1500 m y sin presencia de cumulonimbus.

TAF: LTBA 171040Z 1712/1818 02008KT CAVOK

Observaciones y pronósticos meteorológicos de más de 4000 aeropuertos (mensajes METAR y TAF).

Los puntos amarillos y rojos representan las estaciones disponibles.

Ponga el ratón en el punto deseado para ver el nombre de la estación.

Haga clic para ver las observaciones y los pronósticos meteorológicos.

Para cambiar el mapa : haga clic en los botones verdes con una cruz de color negro para hacer un zoom, en el botón verde con un guión para alejar o en las flechas verdes para mapas adyacentes.


METAR-TAF: